sensor_id;sensor_type;location;lat;lon;timestamp;P1;durP1;ratioP1;P2;durP2;ratioP2
64936;SDS011;51452;47.698;19.050;2024-03-06T00:02:20;13.23;;;6.32;;
64936;SDS011;51452;47.698;19.050;2024-03-06T00:04:46;12.73;;;6.67;;
64936;SDS011;51452;47.698;19.050;2024-03-06T00:07:11;10.15;;;6.40;;
64936;SDS011;51452;47.698;19.050;2024-03-06T00:09:37;12.50;;;6.45;;
64936;SDS011;51452;47.698;19.050;2024-03-06T00:12:03;14.50;;;8.43;;
64936;SDS011;51452;47.698;19.050;2024-03-06T00:14:29;14.60;;;9.00;;
64936;SDS011;51452;47.698;19.050;2024-03-06T00:16:54;20.02;;;8.40;;
64936;SDS011;51452;47.698;19.050;2024-03-06T00:19:25;13.38;;;7.25;;
64936;SDS011;51452;47.698;19.050;2024-03-06T00:21:51;14.23;;;7.32;;
64936;SDS011;51452;47.698;19.050;2024-03-06T00:24:16;15.20;;;8.15;;
64936;SDS011;51452;47.698;19.050;2024-03-06T00:26:42;14.75;;;8.10;;
64936;SDS011;51452;47.698;19.050;2024-03-06T00:29:09;13.73;;;7.95;;
64936;SDS011;51452;47.698;19.050;2024-03-06T00:31:35;12.40;;;7.20;;
64936;SDS011;51452;47.698;19.050;2024-03-06T00:34:00;12.98;;;7.00;;
64936;SDS011;51452;47.698;19.050;2024-03-06T00:36:26;14.27;;;7.82;;
64936;SDS011;51452;47.698;19.050;2024-03-06T00:38:51;11.73;;;7.53;;
64936;SDS011;51452;47.698;19.050;2024-03-06T00:41:17;20.10;;;7.60;;
64936;SDS011;51452;47.698;19.050;2024-03-06T00:43:42;13.38;;;7.50;;
64936;SDS011;51452;47.698;19.050;2024-03-06T00:46:08;13.18;;;7.45;;
64936;SDS011;51452;47.698;19.050;2024-03-06T00:48:33;11.48;;;6.75;;
64936;SDS011;51452;47.698;19.050;2024-03-06T00:50:59;12.63;;;6.90;;
64936;SDS011;51452;47.698;19.050;2024-03-06T00:53:24;10.97;;;6.10;;
64936;SDS011;51452;47.698;19.050;2024-03-06T00:55:59;15.18;;;6.60;;
64936;SDS011;51452;47.698;19.050;2024-03-06T00:58:25;9.47;;;6.07;;
64936;SDS011;51452;47.698;19.050;2024-03-06T01:00:50;11.63;;;7.20;;
64936;SDS011;51452;47.698;19.050;2024-03-06T01:03:15;12.20;;;7.07;;
64936;SDS011;51452;47.698;19.050;2024-03-06T01:05:41;12.63;;;6.88;;
64936;SDS011;51452;47.698;19.050;2024-03-06T01:08:07;15.17;;;6.70;;
64936;SDS011;51452;47.698;19.050;2024-03-06T01:10:32;11.48;;;6.65;;
64936;SDS011;51452;47.698;19.050;2024-03-06T01:12:58;10.30;;;6.53;;
64936;SDS011;51452;47.698;19.050;2024-03-06T01:15:23;11.18;;;6.13;;
64936;SDS011;51452;47.698;19.050;2024-03-06T01:17:48;8.43;;;5.57;;
64936;SDS011;51452;47.698;19.050;2024-03-06T01:20:14;11.07;;;5.77;;
64936;SDS011;51452;47.698;19.050;2024-03-06T01:22:40;14.57;;;6.00;;
64936;SDS011;51452;47.698;19.050;2024-03-06T01:25:05;9.93;;;5.27;;
64936;SDS011;51452;47.698;19.050;2024-03-06T01:27:32;10.57;;;6.07;;
64936;SDS011;51452;47.698;19.050;2024-03-06T01:29:57;8.40;;;5.40;;
64936;SDS011;51452;47.698;19.050;2024-03-06T01:32:23;11.07;;;6.13;;
64936;SDS011;51452;47.698;19.050;2024-03-06T01:34:48;9.67;;;5.60;;
64936;SDS011;51452;47.698;19.050;2024-03-06T01:37:13;9.47;;;5.63;;
64936;SDS011;51452;47.698;19.050;2024-03-06T01:39:42;9.50;;;5.60;;
64936;SDS011;51452;47.698;19.050;2024-03-06T01:42:07;8.60;;;5.77;;
64936;SDS011;51452;47.698;19.050;2024-03-06T01:44:32;10.67;;;6.07;;
64936;SDS011;51452;47.698;19.050;2024-03-06T01:46:58;10.80;;;6.10;;
64936;SDS011;51452;47.698;19.050;2024-03-06T01:49:23;13.60;;;6.40;;
64936;SDS011;51452;47.698;19.050;2024-03-06T01:51:52;11.03;;;5.63;;
64936;SDS011;51452;47.698;19.050;2024-03-06T01:54:20;10.37;;;6.10;;
64936;SDS011;51452;47.698;19.050;2024-03-06T01:56:47;12.80;;;6.20;;
64936;SDS011;51452;47.698;19.050;2024-03-06T01:59:14;12.73;;;6.67;;
64936;SDS011;51452;47.698;19.050;2024-03-06T02:01:40;12.60;;;5.67;;
64936;SDS011;51452;47.698;19.050;2024-03-06T02:04:06;11.20;;;6.10;;
64936;SDS011;51452;47.698;19.050;2024-03-06T02:06:34;12.47;;;6.50;;
64936;SDS011;51452;47.698;19.050;2024-03-06T02:09:00;12.57;;;6.83;;
64936;SDS011;51452;47.698;19.050;2024-03-06T02:11:26;11.93;;;6.63;;
64936;SDS011;51452;47.698;19.050;2024-03-06T02:13:51;14.37;;;6.90;;
64936;SDS011;51452;47.698;19.050;2024-03-06T02:16:16;13.70;;;7.10;;
64936;SDS011;51452;47.698;19.050;2024-03-06T02:18:51;10.50;;;6.97;;
64936;SDS011;51452;47.698;19.050;2024-03-06T02:21:19;17.03;;;6.80;;
64936;SDS011;51452;47.698;19.050;2024-03-06T02:23:48;10.57;;;5.93;;
64936;SDS011;51452;47.698;19.050;2024-03-06T02:26:14;10.10;;;5.80;;
64936;SDS011;51452;47.698;19.050;2024-03-06T02:28:39;8.67;;;5.13;;
64936;SDS011;51452;47.698;19.050;2024-03-06T02:31:11;8.83;;;5.10;;
64936;SDS011;51452;47.698;19.050;2024-03-06T02:33:37;13.33;;;5.77;;
64936;SDS011;51452;47.698;19.050;2024-03-06T02:36:03;8.47;;;4.97;;
64936;SDS011;51452;47.698;19.050;2024-03-06T02:38:30;8.70;;;4.83;;
64936;SDS011;51452;47.698;19.050;2024-03-06T02:40:56;8.77;;;5.00;;
64936;SDS011;51452;47.698;19.050;2024-03-06T02:43:21;7.87;;;5.10;;
64936;SDS011;51452;47.698;19.050;2024-03-06T02:45:46;7.97;;;4.70;;
64936;SDS011;51452;47.698;19.050;2024-03-06T02:48:12;9.17;;;5.00;;
64936;SDS011;51452;47.698;19.050;2024-03-06T02:50:37;8.13;;;4.83;;
64936;SDS011;51452;47.698;19.050;2024-03-06T02:53:02;7.30;;;4.53;;
64936;SDS011;51452;47.698;19.050;2024-03-06T02:55:31;6.93;;;4.73;;
64936;SDS011;51452;47.698;19.050;2024-03-06T02:57:56;8.50;;;4.97;;
64936;SDS011;51452;47.698;19.050;2024-03-06T03:00:22;8.33;;;4.93;;
64936;SDS011;51452;47.698;19.050;2024-03-06T03:02:47;10.87;;;5.23;;
64936;SDS011;51452;47.698;19.050;2024-03-06T03:05:12;8.03;;;4.60;;
64936;SDS011;51452;47.698;19.050;2024-03-06T03:07:38;9.87;;;4.70;;
64936;SDS011;51452;47.698;19.050;2024-03-06T03:10:04;11.60;;;5.23;;
64936;SDS011;51452;47.698;19.050;2024-03-06T03:12:29;7.87;;;5.07;;
64936;SDS011;51452;47.698;19.050;2024-03-06T03:14:55;8.03;;;4.80;;
64936;SDS011;51452;47.698;19.050;2024-03-06T03:17:20;11.77;;;5.30;;
64936;SDS011;51452;47.698;19.050;2024-03-06T03:19:46;8.57;;;4.93;;
64936;SDS011;51452;47.698;19.050;2024-03-06T03:22:11;7.97;;;4.90;;
64936;SDS011;51452;47.698;19.050;2024-03-06T03:24:38;9.40;;;5.57;;
64936;SDS011;51452;47.698;19.050;2024-03-06T03:27:04;8.57;;;4.93;;
64936;SDS011;51452;47.698;19.050;2024-03-06T03:29:29;8.37;;;5.33;;
64936;SDS011;51452;47.698;19.050;2024-03-06T03:31:55;8.70;;;5.33;;
64936;SDS011;51452;47.698;19.050;2024-03-06T03:34:20;9.90;;;5.43;;
64936;SDS011;51452;47.698;19.050;2024-03-06T03:36:47;11.33;;;5.47;;
64936;SDS011;51452;47.698;19.050;2024-03-06T03:39:13;8.47;;;5.07;;
64936;SDS011;51452;47.698;19.050;2024-03-06T03:41:45;8.07;;;4.80;;
64936;SDS011;51452;47.698;19.050;2024-03-06T03:44:15;9.13;;;5.17;;
64936;SDS011;51452;47.698;19.050;2024-03-06T03:46:41;9.60;;;5.13;;
64936;SDS011;51452;47.698;19.050;2024-03-06T03:49:07;9.77;;;4.70;;
64936;SDS011;51452;47.698;19.050;2024-03-06T03:51:36;7.50;;;5.27;;
64936;SDS011;51452;47.698;19.050;2024-03-06T03:54:03;8.07;;;5.27;;
64936;SDS011;51452;47.698;19.050;2024-03-06T03:56:28;10.17;;;5.70;;
64936;SDS011;51452;47.698;19.050;2024-03-06T03:58:55;11.37;;;5.53;;
64936;SDS011;51452;47.698;19.050;2024-03-06T04:01:21;10.93;;;5.63;;
64936;SDS011;51452;47.698;19.050;2024-03-06T04:03:51;9.87;;;6.20;;
64936;SDS011;51452;47.698;19.050;2024-03-06T04:06:17;8.30;;;5.30;;
64936;SDS011;51452;47.698;19.050;2024-03-06T04:08:42;8.53;;;6.00;;
64936;SDS011;51452;47.698;19.050;2024-03-06T04:11:07;9.63;;;5.40;;
64936;SDS011;51452;47.698;19.050;2024-03-06T04:13:37;9.73;;;4.90;;
64936;SDS011;51452;47.698;19.050;2024-03-06T04:16:04;10.37;;;5.40;;
64936;SDS011;51452;47.698;19.050;2024-03-06T04:18:30;12.37;;;5.73;;
64936;SDS011;51452;47.698;19.050;2024-03-06T04:21:02;9.60;;;5.80;;
64936;SDS011;51452;47.698;19.050;2024-03-06T04:23:29;9.43;;;5.30;;
64936;SDS011;51452;47.698;19.050;2024-03-06T04:25:54;8.73;;;5.90;;
64936;SDS011;51452;47.698;19.050;2024-03-06T04:28:19;12.63;;;6.23;;
64936;SDS011;51452;47.698;19.050;2024-03-06T04:30:45;12.10;;;6.27;;
64936;SDS011;51452;47.698;19.050;2024-03-06T04:33:10;10.07;;;5.17;;
64936;SDS011;51452;47.698;19.050;2024-03-06T04:35:38;8.63;;;5.27;;
64936;SDS011;51452;47.698;19.050;2024-03-06T04:38:04;11.30;;;5.87;;
64936;SDS011;51452;47.698;19.050;2024-03-06T04:40:30;9.87;;;5.77;;
64936;SDS011;51452;47.698;19.050;2024-03-06T04:42:56;11.03;;;5.73;;
64936;SDS011;51452;47.698;19.050;2024-03-06T04:45:22;11.03;;;5.77;;
64936;SDS011;51452;47.698;19.050;2024-03-06T04:47:47;13.83;;;6.30;;
64936;SDS011;51452;47.698;19.050;2024-03-06T04:50:12;13.57;;;6.27;;
64936;SDS011;51452;47.698;19.050;2024-03-06T04:52:39;11.30;;;5.57;;
64936;SDS011;51452;47.698;19.050;2024-03-06T04:55:05;10.23;;;5.33;;
64936;SDS011;51452;47.698;19.050;2024-03-06T04:57:32;11.47;;;5.57;;
64936;SDS011;51452;47.698;19.050;2024-03-06T04:59:57;8.77;;;5.57;;
64936;SDS011;51452;47.698;19.050;2024-03-06T05:02:23;11.23;;;5.83;;
64936;SDS011;51452;47.698;19.050;2024-03-06T05:04:50;9.67;;;5.73;;
64936;SDS011;51452;47.698;19.050;2024-03-06T05:07:16;10.70;;;5.97;;
64936;SDS011;51452;47.698;19.050;2024-03-06T05:09:41;10.90;;;6.03;;
64936;SDS011;51452;47.698;19.050;2024-03-06T05:12:07;12.43;;;5.73;;
64936;SDS011;51452;47.698;19.050;2024-03-06T05:14:33;10.90;;;6.13;;
64936;SDS011;51452;47.698;19.050;2024-03-06T05:16:58;10.47;;;6.30;;
64936;SDS011;51452;47.698;19.050;2024-03-06T05:19:24;12.87;;;6.00;;
64936;SDS011;51452;47.698;19.050;2024-03-06T05:21:56;13.37;;;6.33;;
64936;SDS011;51452;47.698;19.050;2024-03-06T05:24:25;14.10;;;6.30;;
64936;SDS011;51452;47.698;19.050;2024-03-06T05:26:50;11.10;;;5.43;;
64936;SDS011;51452;47.698;19.050;2024-03-06T05:29:16;13.37;;;6.43;;
64936;SDS011;51452;47.698;19.050;2024-03-06T05:31:41;8.73;;;5.80;;
64936;SDS011;51452;47.698;19.050;2024-03-06T05:34:07;8.30;;;5.63;;
64936;SDS011;51452;47.698;19.050;2024-03-06T05:36:33;12.03;;;6.60;;
64936;SDS011;51452;47.698;19.050;2024-03-06T05:38:58;11.37;;;6.20;;
64936;SDS011;51452;47.698;19.050;2024-03-06T05:41:23;13.93;;;5.77;;
64936;SDS011;51452;47.698;19.050;2024-03-06T05:43:49;9.47;;;5.63;;
64936;SDS011;51452;47.698;19.050;2024-03-06T05:46:14;10.53;;;6.07;;
64936;SDS011;51452;47.698;19.050;2024-03-06T05:48:40;9.57;;;5.00;;
64936;SDS011;51452;47.698;19.050;2024-03-06T05:51:06;11.73;;;6.23;;
64936;SDS011;51452;47.698;19.050;2024-03-06T05:53:35;14.37;;;5.97;;
64936;SDS011;51452;47.698;19.050;2024-03-06T05:56:03;10.47;;;5.83;;
64936;SDS011;51452;47.698;19.050;2024-03-06T05:58:30;9.60;;;5.30;;
64936;SDS011;51452;47.698;19.050;2024-03-06T06:00:56;14.23;;;5.90;;
64936;SDS011;51452;47.698;19.050;2024-03-06T06:03:21;11.68;;;5.93;;
64936;SDS011;51452;47.698;19.050;2024-03-06T06:05:47;10.23;;;5.85;;
64936;SDS011;51452;47.698;19.050;2024-03-06T06:08:12;9.20;;;5.60;;
64936;SDS011;51452;47.698;19.050;2024-03-06T06:10:37;11.10;;;5.20;;
64936;SDS011;51452;47.698;19.050;2024-03-06T06:13:03;11.30;;;5.73;;
64936;SDS011;51452;47.698;19.050;2024-03-06T06:15:29;9.30;;;5.53;;
64936;SDS011;51452;47.698;19.050;2024-03-06T06:17:55;9.00;;;5.33;;
64936;SDS011;51452;47.698;19.050;2024-03-06T06:20:21;11.70;;;5.47;;
64936;SDS011;51452;47.698;19.050;2024-03-06T06:22:46;8.43;;;5.00;;
64936;SDS011;51452;47.698;19.050;2024-03-06T06:25:11;11.02;;;6.10;;
64936;SDS011;51452;47.698;19.050;2024-03-06T06:27:37;12.07;;;5.55;;
64936;SDS011;51452;47.698;19.050;2024-03-06T06:32:47;12.10;;;5.55;;
64936;SDS011;51452;47.698;19.050;2024-03-06T06:35:12;10.30;;;6.18;;
64936;SDS011;51452;47.698;19.050;2024-03-06T06:37:38;13.75;;;6.13;;
64936;SDS011;51452;47.698;19.050;2024-03-06T06:40:05;9.80;;;6.22;;
64936;SDS011;51452;47.698;19.050;2024-03-06T06:42:34;11.13;;;6.47;;
64936;SDS011;51452;47.698;19.050;2024-03-06T06:45:01;13.10;;;6.75;;
64936;SDS011;51452;47.698;19.050;2024-03-06T06:47:27;13.88;;;7.32;;
64936;SDS011;51452;47.698;19.050;2024-03-06T06:49:53;12.18;;;6.88;;
64936;SDS011;51452;47.698;19.050;2024-03-06T06:52:19;10.32;;;6.00;;
64936;SDS011;51452;47.698;19.050;2024-03-06T06:54:44;12.05;;;5.95;;
64936;SDS011;51452;47.698;19.050;2024-03-06T06:57:10;11.98;;;6.00;;
64936;SDS011;51452;47.698;19.050;2024-03-06T06:59:39;11.90;;;6.90;;
64936;SDS011;51452;47.698;19.050;2024-03-06T07:02:04;10.90;;;6.45;;
64936;SDS011;51452;47.698;19.050;2024-03-06T07:04:31;11.07;;;6.53;;
64936;SDS011;51452;47.698;19.050;2024-03-06T07:06:56;13.30;;;6.90;;
64936;SDS011;51452;47.698;19.050;2024-03-06T07:09:22;10.57;;;6.15;;
64936;SDS011;51452;47.698;19.050;2024-03-06T07:11:50;10.13;;;6.10;;
64936;SDS011;51452;47.698;19.050;2024-03-06T07:14:21;11.55;;;5.90;;
64936;SDS011;51452;47.698;19.050;2024-03-06T07:16:49;13.63;;;7.05;;
64936;SDS011;51452;47.698;19.050;2024-03-06T07:19:14;10.97;;;6.80;;
64936;SDS011;51452;47.698;19.050;2024-03-06T07:21:41;11.52;;;6.97;;
64936;SDS011;51452;47.698;19.050;2024-03-06T07:24:07;10.73;;;6.70;;
64936;SDS011;51452;47.698;19.050;2024-03-06T07:26:33;10.57;;;7.13;;
64936;SDS011;51452;47.698;19.050;2024-03-06T07:28:59;10.18;;;6.57;;
64936;SDS011;51452;47.698;19.050;2024-03-06T07:31:25;9.48;;;6.10;;
64936;SDS011;51452;47.698;19.050;2024-03-06T07:33:51;12.85;;;7.88;;
64936;SDS011;51452;47.698;19.050;2024-03-06T07:36:16;17.52;;;9.00;;
64936;SDS011;51452;47.698;19.050;2024-03-06T07:38:42;15.43;;;9.40;;
64936;SDS011;51452;47.698;19.050;2024-03-06T07:41:08;16.92;;;10.32;;
64936;SDS011;51452;47.698;19.050;2024-03-06T07:43:35;20.20;;;11.07;;
64936;SDS011;51452;47.698;19.050;2024-03-06T07:46:00;23.10;;;11.07;;
64936;SDS011;51452;47.698;19.050;2024-03-06T07:48:25;19.77;;;10.80;;
64936;SDS011;51452;47.698;19.050;2024-03-06T07:50:51;18.50;;;11.40;;
64936;SDS011;51452;47.698;19.050;2024-03-06T07:53:16;22.45;;;13.05;;
64936;SDS011;51452;47.698;19.050;2024-03-06T07:55:42;22.90;;;12.27;;
64936;SDS011;51452;47.698;19.050;2024-03-06T07:58:07;22.27;;;12.85;;
64936;SDS011;51452;47.698;19.050;2024-03-06T08:00:36;28.95;;;12.70;;
64936;SDS011;51452;47.698;19.050;2024-03-06T08:03:02;25.75;;;14.00;;
64936;SDS011;51452;47.698;19.050;2024-03-06T08:05:30;31.20;;;15.80;;
64936;SDS011;51452;47.698;19.050;2024-03-06T08:07:58;27.60;;;14.98;;
64936;SDS011;51452;47.698;19.050;2024-03-06T08:10:24;30.20;;;16.75;;
64936;SDS011;51452;47.698;19.050;2024-03-06T08:12:49;39.92;;;16.38;;
64936;SDS011;51452;47.698;19.050;2024-03-06T08:15:15;32.85;;;15.93;;
64936;SDS011;51452;47.698;19.050;2024-03-06T08:17:44;28.52;;;15.80;;
64936;SDS011;51452;47.698;19.050;2024-03-06T08:20:09;29.45;;;15.57;;
64936;SDS011;51452;47.698;19.050;2024-03-06T08:22:39;26.60;;;14.32;;
64936;SDS011;51452;47.698;19.050;2024-03-06T08:25:06;30.88;;;15.98;;
64936;SDS011;51452;47.698;19.050;2024-03-06T08:27:34;27.65;;;15.40;;
64936;SDS011;51452;47.698;19.050;2024-03-06T08:30:00;29.25;;;15.15;;
64936;SDS011;51452;47.698;19.050;2024-03-06T08:32:25;25.48;;;14.50;;
64936;SDS011;51452;47.698;19.050;2024-03-06T08:34:50;24.98;;;13.15;;
64936;SDS011;51452;47.698;19.050;2024-03-06T08:37:16;23.67;;;12.77;;
64936;SDS011;51452;47.698;19.050;2024-03-06T08:39:41;23.00;;;12.57;;
64936;SDS011;51452;47.698;19.050;2024-03-06T08:42:07;22.80;;;12.32;;
64936;SDS011;51452;47.698;19.050;2024-03-06T08:44:33;18.42;;;11.30;;
64936;SDS011;51452;47.698;19.050;2024-03-06T08:46:59;17.30;;;10.35;;
64936;SDS011;51452;47.698;19.050;2024-03-06T08:49:24;18.20;;;10.25;;
64936;SDS011;51452;47.698;19.050;2024-03-06T08:51:49;18.20;;;10.18;;
64936;SDS011;51452;47.698;19.050;2024-03-06T08:54:15;20.35;;;8.93;;
64936;SDS011;51452;47.698;19.050;2024-03-06T08:56:42;12.15;;;7.28;;
64936;SDS011;51452;47.698;19.050;2024-03-06T08:59:08;10.02;;;5.82;;
64936;SDS011;51452;47.698;19.050;2024-03-06T09:01:34;9.95;;;6.00;;
64936;SDS011;51452;47.698;19.050;2024-03-06T09:03:59;13.35;;;5.95;;
64936;SDS011;51452;47.698;19.050;2024-03-06T09:06:25;9.68;;;5.55;;
64936;SDS011;51452;47.698;19.050;2024-03-06T09:08:50;10.30;;;5.03;;
64936;SDS011;51452;47.698;19.050;2024-03-06T09:11:15;8.05;;;5.13;;
64936;SDS011;51452;47.698;19.050;2024-03-06T09:13:41;9.13;;;6.00;;
64936;SDS011;51452;47.698;19.050;2024-03-06T09:16:06;11.18;;;5.57;;
64936;SDS011;51452;47.698;19.050;2024-03-06T09:18:32;9.07;;;5.10;;
64936;SDS011;51452;47.698;19.050;2024-03-06T09:20:57;8.73;;;4.97;;
64936;SDS011;51452;47.698;19.050;2024-03-06T09:23:22;8.63;;;5.50;;
64936;SDS011;51452;47.698;19.050;2024-03-06T09:25:48;10.48;;;5.50;;
64936;SDS011;51452;47.698;19.050;2024-03-06T09:28:14;9.23;;;5.50;;
64936;SDS011;51452;47.698;19.050;2024-03-06T09:30:39;8.38;;;5.40;;
64936;SDS011;51452;47.698;19.050;2024-03-06T09:33:06;9.18;;;5.47;;
64936;SDS011;51452;47.698;19.050;2024-03-06T09:35:32;8.88;;;5.38;;
64936;SDS011;51452;47.698;19.050;2024-03-06T09:37:57;11.15;;;6.15;;
64936;SDS011;51452;47.698;19.050;2024-03-06T09:40:23;9.63;;;5.78;;
64936;SDS011;51452;47.698;19.050;2024-03-06T09:42:49;11.18;;;6.10;;
64936;SDS011;51452;47.698;19.050;2024-03-06T09:45:15;9.57;;;5.55;;
64936;SDS011;51452;47.698;19.050;2024-03-06T09:47:44;8.05;;;5.45;;
64936;SDS011;51452;47.698;19.050;2024-03-06T09:50:11;8.15;;;5.07;;
64936;SDS011;51452;47.698;19.050;2024-03-06T09:52:41;10.93;;;5.72;;
64936;SDS011;51452;47.698;19.050;2024-03-06T09:55:08;10.32;;;5.80;;
64936;SDS011;51452;47.698;19.050;2024-03-06T09:57:35;9.43;;;6.00;;
64936;SDS011;51452;47.698;19.050;2024-03-06T10:00:00;8.13;;;5.53;;
64936;SDS011;51452;47.698;19.050;2024-03-06T10:02:30;7.45;;;5.07;;
64936;SDS011;51452;47.698;19.050;2024-03-06T10:05:02;10.32;;;5.60;;
64936;SDS011;51452;47.698;19.050;2024-03-06T10:07:31;8.68;;;5.15;;
64936;SDS011;51452;47.698;19.050;2024-03-06T10:09:56;10.20;;;5.55;;
64936;SDS011;51452;47.698;19.050;2024-03-06T10:12:22;14.25;;;6.65;;
64936;SDS011;51452;47.698;19.050;2024-03-06T10:14:51;11.30;;;6.30;;
64936;SDS011;51452;47.698;19.050;2024-03-06T10:17:20;13.25;;;7.18;;
64936;SDS011;51452;47.698;19.050;2024-03-06T10:19:52;18.63;;;7.57;;
64936;SDS011;51452;47.698;19.050;2024-03-06T10:22:20;11.52;;;7.10;;
64936;SDS011;51452;47.698;19.050;2024-03-06T10:24:48;14.10;;;7.13;;
64936;SDS011;51452;47.698;19.050;2024-03-06T10:27:14;13.18;;;6.43;;
64936;SDS011;51452;47.698;19.050;2024-03-06T10:29:43;10.80;;;6.78;;
64936;SDS011;51452;47.698;19.050;2024-03-06T10:32:09;11.45;;;6.63;;
64936;SDS011;51452;47.698;19.050;2024-03-06T10:34:36;11.15;;;6.30;;
64936;SDS011;51452;47.698;19.050;2024-03-06T10:37:02;11.20;;;7.10;;
64936;SDS011;51452;47.698;19.050;2024-03-06T10:39:29;10.70;;;6.30;;
64936;SDS011;51452;47.698;19.050;2024-03-06T10:41:59;9.80;;;6.57;;
64936;SDS011;51452;47.698;19.050;2024-03-06T10:44:28;11.15;;;6.65;;
64936;SDS011;51452;47.698;19.050;2024-03-06T10:47:04;11.90;;;6.75;;
64936;SDS011;51452;47.698;19.050;2024-03-06T10:49:34;12.45;;;6.85;;
64936;SDS011;51452;47.698;19.050;2024-03-06T10:52:02;11.20;;;7.40;;
64936;SDS011;51452;47.698;19.050;2024-03-06T10:54:31;12.80;;;7.22;;
64936;SDS011;51452;47.698;19.050;2024-03-06T10:57:00;13.23;;;7.43;;
64936;SDS011;51452;47.698;19.050;2024-03-06T10:59:26;12.43;;;7.10;;
64936;SDS011;51452;47.698;19.050;2024-03-06T11:01:53;12.93;;;7.13;;
64936;SDS011;51452;47.698;19.050;2024-03-06T11:04:19;11.82;;;7.00;;
64936;SDS011;51452;47.698;19.050;2024-03-06T11:06:45;10.40;;;6.55;;
64936;SDS011;51452;47.698;19.050;2024-03-06T11:09:11;8.75;;;5.25;;
64936;SDS011;51452;47.698;19.050;2024-03-06T11:11:52;9.48;;;4.75;;
64936;SDS011;51452;47.698;19.050;2024-03-06T11:14:21;7.22;;;4.93;;
64936;SDS011;51452;47.698;19.050;2024-03-06T11:17:01;6.95;;;4.70;;
64936;SDS011;51452;47.698;19.050;2024-03-06T11:19:32;9.73;;;4.70;;
64936;SDS011;51452;47.698;19.050;2024-03-06T11:22:17;9.10;;;4.88;;
64936;SDS011;51452;47.698;19.050;2024-03-06T11:24:43;9.55;;;4.50;;
64936;SDS011;51452;47.698;19.050;2024-03-06T11:27:08;8.85;;;4.57;;
64936;SDS011;51452;47.698;19.050;2024-03-06T11:32:35;9.82;;;5.68;;
64936;SDS011;51452;47.698;19.050;2024-03-06T11:35:01;10.25;;;5.25;;
64936;SDS011;51452;47.698;19.050;2024-03-06T11:37:29;11.15;;;6.50;;
64936;SDS011;51452;47.698;19.050;2024-03-06T11:39:59;8.98;;;5.90;;
64936;SDS011;51452;47.698;19.050;2024-03-06T11:42:35;8.15;;;5.00;;
64936;SDS011;51452;47.698;19.050;2024-03-06T11:45:15;10.55;;;5.53;;
64936;SDS011;51452;47.698;19.050;2024-03-06T11:47:58;6.97;;;4.25;;
64936;SDS011;51452;47.698;19.050;2024-03-06T11:50:25;8.50;;;4.70;;
64936;SDS011;51452;47.698;19.050;2024-03-06T11:52:52;7.50;;;4.65;;
64936;SDS011;51452;47.698;19.050;2024-03-06T11:55:21;7.85;;;4.75;;
64936;SDS011;51452;47.698;19.050;2024-03-06T11:57:47;8.68;;;5.10;;
64936;SDS011;51452;47.698;19.050;2024-03-06T12:00:12;8.15;;;5.32;;
64936;SDS011;51452;47.698;19.050;2024-03-06T12:02:40;8.20;;;5.15;;
64936;SDS011;51452;47.698;19.050;2024-03-06T12:05:05;8.77;;;4.95;;
64936;SDS011;51452;47.698;19.050;2024-03-06T12:07:31;9.63;;;5.20;;
64936;SDS011;51452;47.698;19.050;2024-03-06T12:09:57;9.68;;;5.03;;
64936;SDS011;51452;47.698;19.050;2024-03-06T12:12:23;9.07;;;5.22;;
64936;SDS011;51452;47.698;19.050;2024-03-06T12:14:56;8.38;;;5.47;;
64936;SDS011;51452;47.698;19.050;2024-03-06T12:17:24;7.38;;;4.88;;
64936;SDS011;51452;47.698;19.050;2024-03-06T12:19:49;8.88;;;4.95;;
64936;SDS011;51452;47.698;19.050;2024-03-06T12:22:15;8.88;;;5.07;;
64936;SDS011;51452;47.698;19.050;2024-03-06T12:24:40;9.05;;;5.07;;
64936;SDS011;51452;47.698;19.050;2024-03-06T12:27:07;10.88;;;6.10;;
64936;SDS011;51452;47.698;19.050;2024-03-06T12:29:33;9.35;;;5.63;;
64936;SDS011;51452;47.698;19.050;2024-03-06T12:32:00;11.88;;;6.88;;
64936;SDS011;51452;47.698;19.050;2024-03-06T12:34:27;11.90;;;6.35;;
64936;SDS011;51452;47.698;19.050;2024-03-06T12:36:53;11.07;;;6.45;;
64936;SDS011;51452;47.698;19.050;2024-03-06T12:39:19;11.77;;;6.70;;
64936;SDS011;51452;47.698;19.050;2024-03-06T12:41:48;10.60;;;6.50;;
64936;SDS011;51452;47.698;19.050;2024-03-06T12:44:16;10.85;;;6.55;;
64936;SDS011;51452;47.698;19.050;2024-03-06T12:46:42;9.05;;;5.07;;
64936;SDS011;51452;47.698;19.050;2024-03-06T12:49:07;10.93;;;5.20;;
64936;SDS011;51452;47.698;19.050;2024-03-06T12:51:33;7.55;;;4.75;;
64936;SDS011;51452;47.698;19.050;2024-03-06T12:53:58;10.15;;;5.13;;
64936;SDS011;51452;47.698;19.050;2024-03-06T12:56:33;8.40;;;4.95;;
64936;SDS011;51452;47.698;19.050;2024-03-06T12:58:59;11.15;;;5.20;;
64936;SDS011;51452;47.698;19.050;2024-03-06T13:01:24;9.55;;;5.13;;
64936;SDS011;51452;47.698;19.050;2024-03-06T13:03:49;9.68;;;4.88;;
64936;SDS011;51452;47.698;19.050;2024-03-06T13:06:15;9.90;;;5.15;;
64936;SDS011;51452;47.698;19.050;2024-03-06T13:08:40;8.07;;;5.80;;
64936;SDS011;51452;47.698;19.050;2024-03-06T13:11:06;8.02;;;4.93;;
64936;SDS011;51452;47.698;19.050;2024-03-06T13:13:31;13.57;;;6.38;;
64936;SDS011;51452;47.698;19.050;2024-03-06T13:15:59;9.55;;;5.57;;
64936;SDS011;51452;47.698;19.050;2024-03-06T13:18:25;11.40;;;5.93;;
64936;SDS011;51452;47.698;19.050;2024-03-06T13:20:53;11.63;;;6.57;;
64936;SDS011;51452;47.698;19.050;2024-03-06T13:23:19;13.02;;;8.20;;
64936;SDS011;51452;47.698;19.050;2024-03-06T13:25:44;15.38;;;7.63;;
64936;SDS011;51452;47.698;19.050;2024-03-06T13:28:11;15.93;;;8.10;;
64936;SDS011;51452;47.698;19.050;2024-03-06T13:30:36;15.23;;;8.30;;
64936;SDS011;51452;47.698;19.050;2024-03-06T13:33:04;13.02;;;7.35;;
64936;SDS011;51452;47.698;19.050;2024-03-06T13:35:30;12.27;;;7.55;;
64936;SDS011;51452;47.698;19.050;2024-03-06T13:37:55;14.10;;;8.00;;
64936;SDS011;51452;47.698;19.050;2024-03-06T13:40:21;14.75;;;8.18;;
64936;SDS011;51452;47.698;19.050;2024-03-06T13:42:46;12.57;;;7.88;;
64936;SDS011;51452;47.698;19.050;2024-03-06T13:45:12;14.43;;;7.85;;
64936;SDS011;51452;47.698;19.050;2024-03-06T13:47:40;15.68;;;8.50;;
64936;SDS011;51452;47.698;19.050;2024-03-06T13:50:07;14.55;;;7.65;;
64936;SDS011;51452;47.698;19.050;2024-03-06T13:52:34;15.10;;;7.85;;
64936;SDS011;51452;47.698;19.050;2024-03-06T13:54:59;13.18;;;7.47;;
64936;SDS011;51452;47.698;19.050;2024-03-06T13:57:27;16.17;;;7.10;;
64936;SDS011;51452;47.698;19.050;2024-03-06T13:59:53;14.38;;;8.98;;
64936;SDS011;51452;47.698;19.050;2024-03-06T14:02:19;14.05;;;8.10;;
64936;SDS011;51452;47.698;19.050;2024-03-06T14:04:44;18.10;;;8.75;;
64936;SDS011;51452;47.698;19.050;2024-03-06T14:07:10;13.30;;;7.85;;
64936;SDS011;51452;47.698;19.050;2024-03-06T14:09:35;13.30;;;8.18;;
64936;SDS011;51452;47.698;19.050;2024-03-06T14:12:01;12.95;;;8.05;;
64936;SDS011;51452;47.698;19.050;2024-03-06T14:14:26;13.52;;;8.00;;
64936;SDS011;51452;47.698;19.050;2024-03-06T14:16:52;14.77;;;8.48;;
64936;SDS011;51452;47.698;19.050;2024-03-06T14:19:17;14.68;;;8.52;;
64936;SDS011;51452;47.698;19.050;2024-03-06T14:21:42;13.40;;;7.85;;
64936;SDS011;51452;47.698;19.050;2024-03-06T14:24:08;15.57;;;8.20;;
64936;SDS011;51452;47.698;19.050;2024-03-06T14:26:34;14.50;;;7.95;;
64936;SDS011;51452;47.698;19.050;2024-03-06T14:29:00;12.88;;;7.68;;